Time;durP1;ratioP1;P1;durP2;ratioP2;P2;SDS_P1;SDS_P2;PMS_P1;PMS_P2;Temp;Humidity;BMP_temperature;BMP_pressure;BME280_temperature;BME280_humidity;BME280_pressure;Samples;Min_cycle;Max_cycle;Signal;HPM_P1;HPM_P2
2021/07/29 00:01:46;;;;;;;2.63;2.17;;;;;;;;;;5107399;28;20027;-67
2021/07/29 00:04:12;;;;;;;4.32;2.30;;;;;;;;;;5113551;28;20020;-67
2021/07/29 00:06:38;;;;;;;3.28;2.50;;;;;;;;;;5113338;28;20030;-68
2021/07/29 00:09:04;;;;;;;2.85;2.30;;;;;;;;;;5103198;28;20054;-68
2021/07/29 00:11:30;;;;;;;5.07;2.20;;;;;;;;;;5113301;28;20023;-67
2021/07/29 00:14:01;;;;;;;7.13;2.08;;;;;;;;;;5113502;28;20469;-68
2021/07/29 00:16:29;;;;;;;3.67;2.45;;;;;;;;;;5113565;28;20089;-66
2021/07/29 00:19:05;;;;;;;2.83;2.17;;;;;;;;;;5112973;28;20429;-68
2021/07/29 00:21:32;;;;;;;3.95;2.20;;;;;;;;;;5113043;28;20020;-68
2021/07/29 00:23:59;;;;;;;3.00;2.58;;;;;;;;;;5113190;28;20097;-66
2021/07/29 00:26:26;;;;;;;3.00;2.30;;;;;;;;;;5113771;28;20043;-67
2021/07/29 00:28:52;;;;;;;3.47;2.55;;;;;;;;;;5113216;28;20023;-67
2021/07/29 00:31:18;;;;;;;6.45;2.85;;;;;;;;;;5112780;28;20016;-67
2021/07/29 00:33:44;;;;;;;2.83;2.50;;;;;;;;;;5113294;28;20425;-66
2021/07/29 00:36:19;;;;;;;5.35;2.33;;;;;;;;;;5112619;28;20016;-66
2021/07/29 00:38:45;;;;;;;;;;;;;;;;;;5113540;28;20023;-66
2021/07/29 00:41:11;;;;;;;;;;;;;;;;;;5113171;28;20372;-66
2021/07/29 00:43:37;;;;;;;;;;;;;;;;;;5113421;28;19942;-65
2021/07/29 00:46:03;;;;;;;;;;;;;;;;;;5113252;28;19903;-65
2021/07/29 00:48:29;;;;;;;;;;;;;;;;;;5113361;28;19912;-65
2021/07/29 00:50:55;;;;;;;6.65;2.70;;;;;;;;;;5112176;28;19912;-66
2021/07/29 00:53:21;;;;;;;5.03;2.40;;;;;;;;;;5111537;28;20027;-65
2021/07/29 00:55:54;;;;;;;13.15;2.95;;;;;;;;;;5105947;28;20020;-67
2021/07/29 00:58:20;;;;;;;4.40;2.53;;;;;;;;;;5114043;28;20412;-66
2021/07/29 01:00:49;;;;;;;2.78;2.38;;;;;;;;;;5108320;28;20031;-65
2021/07/29 01:03:15;;;;;;;6.15;2.10;;;;;;;;;;5111543;28;20023;-66
2021/07/29 01:05:42;;;;;;;3.45;2.38;;;;;;;;;;5112350;28;20028;-67
2021/07/29 01:08:08;;;;;;;2.85;2.30;;;;;;;;;;5112615;28;20418;-67
2021/07/29 01:10:36;;;;;;;4.07;2.22;;;;;;;;;;5112575;28;20024;-67
2021/07/29 01:13:03;;;;;;;5.10;2.50;;;;;;;;;;5112454;28;20028;-64
2021/07/29 01:15:29;;;;;;;4.63;2.30;;;;;;;;;;5111941;28;20465;-67
2021/07/29 01:18:01;;;;;;;5.95;2.80;;;;;;;;;;5112533;28;20128;-67
2021/07/29 01:20:28;;;;;;;4.22;2.85;;;;;;;;;;5112296;28;20038;-67
2021/07/29 01:22:54;;;;;;;6.30;3.15;;;;;;;;;;5112391;28;20020;-67
2021/07/29 01:25:20;;;;;;;4.47;2.60;;;;;;;;;;5110896;28;20046;-67
2021/07/29 01:27:46;;;;;;;5.07;2.72;;;;;;;;;;5111904;28;20064;-66
2021/07/29 01:30:13;;;;;;;3.53;2.00;;;;;;;;;;5112184;28;20023;-67
2021/07/29 01:32:42;;;;;;;3.38;2.22;;;;;;;;;;5112234;28;20032;-67
2021/07/29 01:35:08;;;;;;;7.97;3.63;;;;;;;;;;5112524;28;20482;-67
2021/07/29 01:37:35;;;;;;;3.75;2.00;;;;;;;;;;5112261;28;20059;-67
2021/07/29 01:40:01;;;;;;;4.35;2.17;;;;;;;;;;5112206;28;20024;-67
2021/07/29 01:42:27;;;;;;;2.47;2.17;;;;;;;;;;5113112;28;20026;-66
2021/07/29 01:44:53;;;;;;;4.15;2.35;;;;;;;;;;5116451;28;20595;-66
2021/07/29 01:47:19;;;;;;;4.43;2.33;;;;;;;;;;5116113;28;20051;-67
2021/07/29 01:49:45;;;;;;;3.47;2.40;;;;;;;;;;5115633;28;20081;-67
2021/07/29 01:52:11;;;;;;;7.28;2.42;;;;;;;;;;5116208;28;20474;-67
2021/07/29 01:54:37;;;;;;;5.07;2.40;;;;;;;;;;5115729;28;20031;-68
2021/07/29 01:57:07;;;;;;;7.50;2.90;;;;;;;;;;5118035;28;20102;-67
2021/07/29 01:59:37;;;;;;;6.60;3.38;;;;;;;;;;5114069;28;20051;-67
2021/07/29 02:02:04;;;;;;;3.40;2.20;;;;;;;;;;5111345;28;20150;-67
2021/07/29 02:04:30;;;;;;;4.45;2.25;;;;;;;;;;5103585;28;20466;-67
2021/07/29 02:06:56;;;;;;;5.22;3.22;;;;;;;;;;5116263;28;20027;-67
2021/07/29 02:09:23;;;;;;;3.67;2.47;;;;;;;;;;5115567;28;20067;-67
2021/07/29 02:11:49;;;;;;;5.30;2.50;;;;;;;;;;5115953;28;20027;-67
2021/07/29 02:14:19;;;;;;;4.25;2.97;;;;;;;;;;5115585;28;20501;-68
2021/07/29 02:16:45;;;;;;;2.67;2.30;;;;;;;;;;5115672;28;20027;-67
2021/07/29 02:19:11;;;;;;;3.97;2.28;;;;;;;;;;5114087;28;20016;-68
2021/07/29 02:21:37;;;;;;;6.57;2.95;;;;;;;;;;5114484;28;20027;-67
2021/07/29 02:24:04;;;;;;;4.00;2.38;;;;;;;;;;5115566;28;20023;-67
2021/07/29 02:26:30;;;;;;;4.07;2.50;;;;;;;;;;5116288;28;20080;-67
2021/07/29 02:28:56;;;;;;;3.80;2.42;;;;;;;;;;5115449;28;20478;-67
2021/07/29 02:31:22;;;;;;;4.63;2.50;;;;;;;;;;5115120;28;20027;-67
2021/07/29 02:33:48;;;;;;;3.85;2.20;;;;;;;;;;5115569;28;20055;-67
2021/07/29 02:36:15;;;;;;;6.25;2.40;;;;;;;;;;5115132;28;20015;-67
2021/07/29 02:38:41;;;;;;;5.78;2.60;;;;;;;;;;5115760;28;20152;-67
2021/07/29 02:41:07;;;;;;;4.72;2.42;;;;;;;;;;5114923;28;20028;-67
2021/07/29 02:43:33;;;;;;;3.30;2.20;;;;;;;;;;5114699;28;20027;-67
2021/07/29 02:45:59;;;;;;;2.72;2.30;;;;;;;;;;5113774;28;20015;-67
2021/07/29 02:48:25;;;;;;;6.65;2.70;;;;;;;;;;5115309;28;20028;-67
2021/07/29 02:50:52;;;;;;;4.13;2.45;;;;;;;;;;5114983;28;20053;-67
2021/07/29 02:53:18;;;;;;;5.72;2.65;;;;;;;;;;5114438;28;20081;-67
2021/07/29 02:55:44;;;;;;;5.40;2.80;;;;;;;;;;5115224;28;20069;-66
2021/07/29 02:58:11;;;;;;;4.35;2.50;;;;;;;;;;5115473;28;20023;-65
2021/07/29 03:00:37;;;;;;;3.90;2.85;;;;;;;;;;5114015;28;20486;-66
2021/07/29 03:03:03;;;;;;;5.80;2.42;;;;;;;;;;5106928;28;20023;-66
2021/07/29 03:05:29;;;;;;;3.63;2.63;;;;;;;;;;5114586;28;20099;-67
2021/07/29 03:07:55;;;;;;;7.53;2.42;;;;;;;;;;5113034;28;20470;-67
2021/07/29 03:10:21;;;;;;;7.28;3.05;;;;;;;;;;5114209;28;20057;-66
2021/07/29 03:12:47;;;;;;;3.30;2.25;;;;;;;;;;5114513;28;20517;-67
2021/07/29 03:15:13;;;;;;;6.05;2.65;;;;;;;;;;5114693;28;20036;-67
2021/07/29 03:17:39;;;;;;;4.55;2.70;;;;;;;;;;5114330;28;20076;-67
2021/07/29 03:20:05;;;;;;;3.05;2.33;;;;;;;;;;5114625;28;20024;-67
2021/07/29 03:22:31;;;;;;;4.30;2.75;;;;;;;;;;5113684;28;20472;-67
2021/07/29 03:24:58;;;;;;;4.57;2.60;;;;;;;;;;5112736;28;20057;-68
2021/07/29 03:27:24;;;;;;;4.35;2.67;;;;;;;;;;5113719;28;20027;-67
2021/07/29 03:29:50;;;;;;;2.67;2.20;;;;;;;;;;5114438;28;20032;-67
2021/07/29 03:32:16;;;;;;;3.53;2.33;;;;;;;;;;5114052;28;20493;-67
2021/07/29 03:34:42;;;;;;;3.80;2.38;;;;;;;;;;5113903;28;20549;-67
2021/07/29 03:37:08;;;;;;;7.03;2.90;;;;;;;;;;5102365;28;20479;-67
2021/07/29 03:39:34;;;;;;;5.03;3.13;;;;;;;;;;5093769;28;20367;-66
2021/07/29 03:42:00;;;;;;;5.57;2.45;;;;;;;;;;5105907;28;20016;-67
2021/07/29 03:44:26;;;;;;;7.55;3.28;;;;;;;;;;5114115;28;20034;-67
2021/07/29 03:46:52;;;;;;;6.88;3.83;;;;;;;;;;5114441;28;20015;-67
2021/07/29 03:49:18;;;;;;;3.78;2.35;;;;;;;;;;5113897;28;20426;-67
2021/07/29 03:51:44;;;;;;;5.63;2.67;;;;;;;;;;5113780;28;20035;-67
2021/07/29 03:54:10;;;;;;;4.88;2.50;;;;;;;;;;5111397;28;20023;-67
2021/07/29 03:56:37;;;;;;;3.78;2.50;;;;;;;;;;5114462;28;20497;-67
2021/07/29 03:59:03;;;;;;;4.72;2.80;;;;;;;;;;5113697;28;20052;-65
2021/07/29 04:01:29;;;;;;;6.18;2.30;;;;;;;;;;5113256;28;20042;-67
2021/07/29 04:03:55;;;;;;;4.28;2.80;;;;;;;;;;5112701;28;20034;-67
2021/07/29 04:06:21;;;;;;;5.53;2.63;;;;;;;;;;5113675;28;20031;-67
2021/07/29 04:08:47;;;;;;;3.83;2.83;;;;;;;;;;5096969;28;20056;-65
2021/07/29 04:11:13;;;;;;;9.30;3.30;;;;;;;;;;5092754;28;20020;-67
2021/07/29 04:13:39;;;;;;;4.68;2.50;;;;;;;;;;5112292;28;20504;-67
2021/07/29 04:16:05;;;;;;;4.22;2.70;;;;;;;;;;5113525;28;20031;-67
2021/07/29 04:18:32;;;;;;;3.05;2.75;;;;;;;;;;5113652;28;20664;-67
2021/07/29 04:20:58;;;;;;;7.50;2.90;;;;;;;;;;5113486;28;20154;-68
2021/07/29 04:23:24;;;;;;;4.88;2.70;;;;;;;;;;5111166;28;20114;-68
2021/07/29 04:25:51;;;;;;;5.60;3.28;;;;;;;;;;5113741;28;20551;-67
2021/07/29 04:28:17;;;;;;;5.07;2.40;;;;;;;;;;5112700;28;20526;-66
2021/07/29 04:30:43;;;;;;;3.72;2.50;;;;;;;;;;5113658;28;20389;-66
2021/07/29 04:33:09;;;;;;;4.93;2.83;;;;;;;;;;5112708;28;20077;-67
2021/07/29 04:35:36;;;;;;;7.32;2.83;;;;;;;;;;5113245;28;20031;-66
2021/07/29 04:38:02;;;;;;;5.03;2.63;;;;;;;;;;5104176;28;20102;-67
2021/07/29 04:40:28;;;;;;;3.47;2.97;;;;;;;;;;5113201;28;20036;-66
2021/07/29 04:42:54;;;;;;;8.68;2.83;;;;;;;;;;5112696;28;20038;-67
2021/07/29 04:45:20;;;;;;;4.10;2.58;;;;;;;;;;5113003;28;20030;-67
2021/07/29 04:47:46;;;;;;;7.93;2.83;;;;;;;;;;5112596;28;20047;-67
2021/07/29 04:50:12;;;;;;;4.90;2.70;;;;;;;;;;5110977;28;20482;-67
2021/07/29 04:52:38;;;;;;;4.93;2.53;;;;;;;;;;5112135;28;20035;-68
2021/07/29 04:55:05;;;;;;;3.58;2.38;;;;;;;;;;5112138;28;20020;-66
2021/07/29 04:57:32;;;;;;;3.47;2.75;;;;;;;;;;5113070;28;20051;-66
2021/07/29 04:59:58;;;;;;;3.13;2.60;;;;;;;;;;5112385;28;20078;-64
2021/07/29 05:02:24;;;;;;;5.10;2.60;;;;;;;;;;5112443;28;20482;-68
2021/07/29 05:04:50;;;;;;;3.58;2.55;;;;;;;;;;5112811;28;20024;-68
2021/07/29 05:07:16;;;;;;;4.03;2.45;;;;;;;;;;5111093;28;20016;-68
2021/07/29 05:09:42;;;;;;;4.82;2.63;;;;;;;;;;5110252;28;20038;-67
2021/07/29 05:12:08;;;;;;;6.55;2.75;;;;;;;;;;5112299;28;20035;-68
2021/07/29 05:14:34;;;;;;;6.15;2.47;;;;;;;;;;5112350;28;20141;-68
2021/07/29 05:17:01;;;;;;;7.13;2.90;;;;;;;;;;5115476;28;20148;-67
2021/07/29 05:19:27;;;;;;;4.75;3.00;;;;;;;;;;5114952;28;20618;-69
2021/07/29 05:21:53;;;;;;;5.32;2.80;;;;;;;;;;5116611;28;20031;-67
2021/07/29 05:24:19;;;;;;;8.95;2.88;;;;;;;;;;5116467;28;20019;-67
2021/07/29 05:26:46;;;;;;;6.75;2.83;;;;;;;;;;5118083;28;20509;-67
2021/07/29 05:29:12;;;;;;;4.95;2.58;;;;;;;;;;5117735;28;20050;-67
2021/07/29 05:31:41;;;;;;;5.07;2.67;;;;;;;;;;5116414;28;20387;-67
2021/07/29 05:34:08;;;;;;;6.75;2.83;;;;;;;;;;5116313;28;20474;-66
2021/07/29 05:36:34;;;;;;;5.60;2.80;;;;;;;;;;5116459;28;20032;-67
2021/07/29 05:39:00;;;;;;;5.60;2.40;;;;;;;;;;5116537;28;20057;-67
2021/07/29 05:41:26;;;;;;;6.70;2.58;;;;;;;;;;5116242;28;20488;-67
2021/07/29 05:43:52;;;;;;;5.68;2.20;;;;;;;;;;5115918;28;20078;-66
2021/07/29 05:46:18;;;;;;;3.08;2.30;;;;;;;;;;5115308;28;20050;-66
2021/07/29 05:48:44;;;;;;;3.00;2.30;;;;;;;;;;5115775;28;20015;-67
2021/07/29 05:51:10;;;;;;;5.63;2.78;;;;;;;;;;5116417;28;20561;-67
2021/07/29 05:53:36;;;;;;;6.50;2.85;;;;;;;;;;5116360;28;20079;-67
2021/07/29 05:56:03;;;;;;;3.80;2.30;;;;;;;;;;5116637;28;20051;-67
2021/07/29 05:58:29;;;;;;;7.35;2.50;;;;;;;;;;5110913;28;20024;-67
2021/07/29 06:00:55;;;;;;;7.25;2.67;;;;;;;;;;5100780;28;20513;-67
2021/07/29 06:03:21;;;;;;;7.57;2.88;;;;;;;;;;5116104;28;20032;-66
2021/07/29 06:05:47;;;;;;;4.50;2.85;;;;;;;;;;5116115;28;20023;-67
2021/07/29 06:08:13;;;;;;;3.22;2.30;;;;;;;;;;5116386;28;20038;-67
2021/07/29 06:10:40;;;;;;;3.75;2.25;;;;;;;;;;5115772;28;20077;-68
2021/07/29 06:13:06;;;;;;;3.83;2.30;;;;;;;;;;5115346;28;20027;-68
2021/07/29 06:15:32;;;;;;;3.22;2.20;;;;;;;;;;5115374;28;20016;-67
2021/07/29 06:18:00;;;;;;;4.55;2.40;;;;;;;;;;5115287;28;20027;-67
2021/07/29 06:20:26;;;;;;;7.47;3.40;;;;;;;;;;5115023;28;20073;-67
2021/07/29 06:22:53;;;;;;;4.28;2.38;;;;;;;;;;5115484;28;20031;-67
2021/07/29 06:25:19;;;;;;;4.32;2.30;;;;;;;;;;5115311;28;20019;-67
2021/07/29 06:27:47;;;;;;;6.15;2.72;;;;;;;;;;5116534;28;20027;-67
2021/07/29 06:30:14;;;;;;;7.65;2.90;;;;;;;;;;5115608;28;20035;-67
2021/07/29 06:32:40;;;;;;;5.47;2.33;;;;;;;;;;5115675;28;20436;-66
2021/07/29 06:35:07;;;;;;;4.45;2.38;;;;;;;;;;5115279;28;20034;-65
2021/07/29 06:37:33;;;;;;;3.72;2.22;;;;;;;;;;5115194;28;20436;-66
2021/07/29 06:40:00;;;;;;;4.15;2.13;;;;;;;;;;5114838;28;20023;-66
2021/07/29 06:42:26;;;;;;;3.67;2.40;;;;;;;;;;5115668;28;20027;-66
2021/07/29 06:44:52;;;;;;;5.70;2.15;;;;;;;;;;5114906;28;20024;-67
2021/07/29 06:47:19;;;;;;;4.07;2.38;;;;;;;;;;5114945;28;20069;-66
2021/07/29 06:49:45;;;;;;;4.03;2.50;;;;;;;;;;5115356;28;20026;-66
2021/07/29 06:52:12;;;;;;;5.97;2.78;;;;;;;;;;5114472;28;20034;-67
2021/07/29 06:54:38;;;;;;;4.38;2.20;;;;;;;;;;5109249;28;20027;-67
2021/07/29 06:57:05;;;;;;;3.92;2.08;;;;;;;;;;5104567;28;20107;-67
2021/07/29 06:59:31;;;;;;;3.88;2.00;;;;;;;;;;5113294;28;20040;-66
2021/07/29 07:01:57;;;;;;;3.28;2.55;;;;;;;;;;5113363;28;20095;-67
2021/07/29 07:04:23;;;;;;;5.63;3.20;;;;;;;;;;5112911;28;20019;-67
2021/07/29 07:06:49;;;;;;;4.10;2.63;;;;;;;;;;5113313;28;20027;-66
2021/07/29 07:09:15;;;;;;;5.60;2.20;;;;;;;;;;5114519;28;20656;-66
2021/07/29 07:11:41;;;;;;;3.95;2.42;;;;;;;;;;5111723;28;20062;-66
2021/07/29 07:14:09;;;;;;;2.83;2.15;;;;;;;;;;5110850;28;20537;-67
2021/07/29 07:16:35;;;;;;;3.75;2.15;;;;;;;;;;5104577;28;20144;-66
2021/07/29 07:19:01;;;;;;;4.32;2.30;;;;;;;;;;5100858;28;20031;-67
2021/07/29 07:21:27;;;;;;;3.22;1.95;;;;;;;;;;5104371;28;20027;-67
2021/07/29 07:23:53;;;;;;;6.75;2.58;;;;;;;;;;5101378;28;20028;-65
2021/07/29 07:26:20;;;;;;;7.72;3.17;;;;;;;;;;5096380;28;20074;-68
2021/07/29 07:28:47;;;;;;;5.00;2.88;;;;;;;;;;5103475;28;20520;-69
2021/07/29 07:31:14;;;;;;;5.55;2.20;;;;;;;;;;5097348;28;20036;-68
2021/07/29 07:33:40;;;;;;;3.33;2.15;;;;;;;;;;5100496;28;20032;-68
2021/07/29 07:36:06;;;;;;;3.17;2.30;;;;;;;;;;5099047;28;20598;-69
2021/07/29 07:38:32;;;;;;;4.43;2.05;;;;;;;;;;5102593;28;20050;-69
2021/07/29 07:41:04;;;;;;;3.72;2.10;;;;;;;;;;5090615;28;20035;-68
2021/07/29 07:43:30;;;;;;;3.10;2.05;;;;;;;;;;5094562;28;20135;-68
2021/07/29 07:45:56;;;;;;;3.80;2.00;;;;;;;;;;5108272;28;20437;-69
2021/07/29 07:48:23;;;;;;;8.15;2.53;;;;;;;;;;5102188;28;20024;-68
2021/07/29 07:50:49;;;;;;;2.78;2.10;;;;;;;;;;5105221;28;20024;-68
2021/07/29 07:53:15;;;;;;;4.22;2.25;;;;;;;;;;5089597;28;20024;-68
2021/07/29 07:55:41;;;;;;;4.35;2.10;;;;;;;;;;5093517;28;20031;-68
2021/07/29 07:58:07;;;;;;;4.13;2.50;;;;;;;;;;5104798;28;20500;-68
2021/07/29 08:00:33;;;;;;;3.03;2.05;;;;;;;;;;5105400;28;20044;-68
2021/07/29 08:02:59;;;;;;;5.85;1.95;;;;;;;;;;5100285;28;20032;-68
2021/07/29 08:05:25;;;;;;;3.60;2.50;;;;;;;;;;5103536;28;20109;-69
2021/07/29 08:07:51;;;;;;;5.72;2.22;;;;;;;;;;5106936;28;20028;-67
2021/07/29 08:10:17;;;;;;;5.03;2.30;;;;;;;;;;5097497;28;20028;-67
2021/07/29 08:12:43;;;;;;;6.90;2.45;;;;;;;;;;5096706;28;20446;-68
2021/07/29 08:15:10;;;;;;;4.05;2.42;;;;;;;;;;5099766;28;20035;-67
2021/07/29 08:17:36;;;;;;;4.05;2.33;;;;;;;;;;5096649;28;20448;-67
2021/07/29 08:20:03;;;;;;;2.60;2.25;;;;;;;;;;5098661;28;20032;-67
2021/07/29 08:22:29;;;;;;;7.50;2.80;;;;;;;;;;5099833;28;20111;-68
2021/07/29 08:24:55;;;;;;;3.75;2.08;;;;;;;;;;5104208;28;20038;-68
2021/07/29 08:27:21;;;;;;;5.18;2.05;;;;;;;;;;5106684;28;20065;-68
2021/07/29 08:29:48;;;;;;;5.10;2.10;;;;;;;;;;5089902;28;20653;-69
2021/07/29 08:32:14;;;;;;;4.82;2.58;;;;;;;;;;5098255;28;20055;-68
2021/07/29 08:34:40;;;;;;;4.88;3.03;;;;;;;;;;5097574;28;20508;-67
2021/07/29 08:37:07;;;;;;;6.68;2.17;;;;;;;;;;5102444;28;20139;-67
2021/07/29 08:39:33;;;;;;;7.90;3.22;;;;;;;;;;5100833;28;20035;-67
2021/07/29 08:41:59;;;;;;;4.75;2.17;;;;;;;;;;5099595;28;20106;-67
2021/07/29 08:44:25;;;;;;;6.20;2.75;;;;;;;;;;5101401;28;20027;-68
2021/07/29 08:46:51;;;;;;;6.47;1.95;;;;;;;;;;5099881;28;20020;-69
2021/07/29 08:49:17;;;;;;;7.20;2.40;;;;;;;;;;5090358;28;20757;-66
2021/07/29 08:51:47;;;;;;;7.45;3.10;;;;;;;;;;5105912;28;20138;-66
2021/07/29 08:54:14;;;;;;;4.10;1.98;;;;;;;;;;5107666;28;20024;-66
2021/07/29 08:56:40;;;;;;;14.38;3.45;;;;;;;;;;5105004;28;20043;-67
2021/07/29 08:59:12;;;;;;;3.60;2.00;;;;;;;;;;5099697;28;20111;-68
2021/07/29 09:02:05;;;;;;;3.20;2.17;;;;;;;;;;5106637;28;20558;-67
2021/07/29 09:04:31;;;;;;;6.70;2.38;;;;;;;;;;5089392;28;20115;-68
2021/07/29 09:06:57;;;;;;;7.53;2.67;;;;;;;;;;5103284;28;20053;-68
2021/07/29 09:09:45;;;;;;;8.15;2.10;;;;;;;;;;5100948;28;20115;-66
2021/07/29 09:12:23;;;;;;;4.35;1.92;;;;;;;;;;5088461;28;20131;-67
2021/07/29 09:14:50;;;;;;;1.63;1.52;;;;;;;;;;5099577;28;20517;-68
2021/07/29 09:17:17;;;;;;;7.18;2.80;;;;;;;;;;5101433;28;20034;-67
2021/07/29 09:19:47;;;;;;;4.05;2.03;;;;;;;;;;5107797;28;20367;-67
2021/07/29 09:22:14;;;;;;;5.63;2.00;;;;;;;;;;5095669;28;20488;-69
2021/07/29 09:25:02;;;;;;;3.10;1.98;;;;;;;;;;5088484;28;20028;-68
2021/07/29 09:27:37;;;;;;;4.55;2.22;;;;;;;;;;5096714;28;20028;-67
2021/07/29 09:30:03;;;;;;;;;;;;;;;;;;5103048;28;20023;-68
2021/07/29 09:32:30;;;;;;;5.28;1.90;;;;;;;;;;5091811;28;19912;-68
2021/07/29 09:34:56;;;;;;;4.65;2.15;;;;;;;;;;5094943;28;20047;-67
2021/07/29 09:37:22;;;;;;;2.28;1.70;;;;;;;;;;5101393;28;20085;-66
2021/07/29 09:39:59;;;;;;;4.93;2.00;;;;;;;;;;5098564;28;20397;-67
2021/07/29 09:42:25;;;;;;;6.15;2.63;;;;;;;;;;5093555;28;20548;-68
2021/07/29 09:44:53;;;;;;;6.40;2.70;;;;;;;;;;5089015;28;20024;-68
2021/07/29 09:47:22;;;;;;;6.28;2.05;;;;;;;;;;5096798;28;20090;-68
2021/07/29 09:49:49;;;;;;;5.22;1.90;;;;;;;;;;5091963;28;20036;-67
2021/07/29 09:52:16;;;;;;;3.90;2.00;;;;;;;;;;5099606;28;20677;-66
2021/07/29 09:54:43;;;;;;;5.20;1.88;;;;;;;;;;5102611;28;20063;-67
2021/07/29 09:57:09;;;;;;;5.18;2.38;;;;;;;;;;5100541;28;20110;-66
2021/07/29 09:59:36;;;;;;;3.05;1.90;;;;;;;;;;5087689;28;20068;-67
2021/07/29 10:02:03;;;;;;;4.68;2.47;;;;;;;;;;5100557;28;20080;-67
2021/07/29 10:04:39;;;;;;;4.30;2.53;;;;;;;;;;5101522;28;20028;-66
2021/07/29 10:07:07;;;;;;;2.75;2.10;;;;;;;;;;5105455;28;20028;-67
2021/07/29 10:09:38;;;;;;;2.38;1.90;;;;;;;;;;5111136;28;20038;-67
2021/07/29 10:12:05;;;;;;;3.80;1.90;;;;;;;;;;5110698;28;20367;-68
2021/07/29 10:14:53;;;;;;;3.88;1.80;;;;;;;;;;5104502;28;20060;-69
2021/07/29 10:17:43;;;;;;;2.33;2.13;;;;;;;;;;5091073;28;20028;-66
2021/07/29 10:20:12;;;;;;;2.70;2.28;;;;;;;;;;5088092;28;20051;-67
2021/07/29 10:22:41;;;;;;;4.95;1.90;;;;;;;;;;5103325;28;20020;-66
2021/07/29 10:25:08;;;;;;;2.65;1.67;;;;;;;;;;5107329;28;20452;-67
2021/07/29 10:27:34;;;;;;;5.05;1.75;;;;;;;;;;5099668;28;20024;-66
2021/07/29 10:30:18;;;;;;;2.47;1.98;;;;;;;;;;5104043;28;20039;-68
2021/07/29 10:32:49;;;;;;;3.53;2.15;;;;;;;;;;5103403;27;20054;-67
2021/07/29 10:35:27;;;;;;;3.75;2.15;;;;;;;;;;5097443;28;20058;-67
2021/07/29 10:37:54;;;;;;;2.60;1.85;;;;;;;;;;5101483;28;20032;-69
2021/07/29 10:40:33;;;;;;;2.40;1.80;;;;;;;;;;5103379;28;20028;-67
2021/07/29 10:43:18;;;;;;;4.47;2.00;;;;;;;;;;5104540;28;20026;-68
2021/07/29 10:45:53;;;;;;;2.50;1.98;;;;;;;;;;5097174;28;20111;-67
2021/07/29 10:48:38;;;;;;;4.15;2.10;;;;;;;;;;5097750;28;20078;-68
2021/07/29 10:51:13;;;;;;;2.20;1.87;;;;;;;;;;5099424;28;20131;-65
2021/07/29 10:53:43;;;;;;;2.33;1.77;;;;;;;;;;5102986;28;20032;-67
2021/07/29 10:56:11;;;;;;;2.47;1.83;;;;;;;;;;5100773;28;20027;-68
2021/07/29 10:58:41;;;;;;;3.75;1.98;;;;;;;;;;5109518;28;20570;-69
2021/07/29 11:01:11;;;;;;;2.20;1.80;;;;;;;;;;5101573;28;20081;-68
2021/07/29 11:03:53;;;;;;;2.60;2.17;;;;;;;;;;5109529;28;20445;-67
2021/07/29 11:06:36;;;;;;;4.10;2.10;;;;;;;;;;5109983;28;20621;-68
2021/07/29 11:09:14;;;;;;;3.58;1.90;;;;;;;;;;5108510;28;20076;-67
2021/07/29 11:11:41;;;;;;;2.90;1.80;;;;;;;;;;5098824;28;20024;-67
2021/07/29 11:14:08;;;;;;;3.80;1.90;;;;;;;;;;5098768;28;20032;-68
2021/07/29 11:16:35;;;;;;;3.60;1.90;;;;;;;;;;5110426;28;20061;-67
2021/07/29 11:19:01;;;;;;;4.38;2.05;;;;;;;;;;5100291;28;20023;-68
2021/07/29 11:21:27;;;;;;;2.95;2.00;;;;;;;;;;5095421;28;20034;-69
2021/07/29 11:23:54;;;;;;;4.97;1.95;;;;;;;;;;5109228;28;20580;-67
2021/07/29 11:26:20;;;;;;;4.40;2.10;;;;;;;;;;5101718;28;20047;-66
2021/07/29 11:29:06;;;;;;;2.72;1.90;;;;;;;;;;5089871;28;20032;-67
2021/07/29 11:31:32;;;;;;;2.53;1.70;;;;;;;;;;5106766;28;20114;-68
2021/07/29 11:33:59;;;;;;;3.17;2.17;;;;;;;;;;5095187;28;20035;-67
2021/07/29 11:36:25;;;;;;;3.47;1.90;;;;;;;;;;5093684;28;20283;-67
2021/07/29 11:39:00;;;;;;;3.72;1.90;;;;;;;;;;5092454;28;20035;-68
2021/07/29 11:41:26;;;;;;;4.35;2.63;;;;;;;;;;5108361;27;20047;-67
2021/07/29 11:43:54;;;;;;;5.32;2.28;;;;;;;;;;5099490;28;20031;-66
2021/07/29 11:46:20;;;;;;;4.57;2.20;;;;;;;;;;5093313;28;20040;-66
2021/07/29 11:48:46;;;;;;;3.75;2.10;;;;;;;;;;5100447;28;20023;-66
2021/07/29 11:51:13;;;;;;;2.53;2.13;;;;;;;;;;5107629;28;20574;-67
2021/07/29 11:53:41;;;;;;;4.88;2.65;;;;;;;;;;5096079;28;20036;-66
2021/07/29 11:56:10;;;;;;;2.10;1.90;;;;;;;;;;5089610;28;20096;-67
2021/07/29 11:58:41;;;;;;;3.00;2.00;;;;;;;;;;5104417;28;20054;-66
2021/07/29 12:01:10;;;;;;;3.63;1.73;;;;;;;;;;5093162;28;20034;-66
2021/07/29 12:03:37;;;;;;;2.63;1.85;;;;;;;;;;5106279;28;20102;-67
2021/07/29 12:06:04;;;;;;;2.13;1.75;;;;;;;;;;5107763;28;20513;-68
2021/07/29 12:08:31;;;;;;;4.40;2.85;;;;;;;;;;5109343;28;20126;-68
2021/07/29 12:10:58;;;;;;;3.60;2.30;;;;;;;;;;5109741;28;20027;-67
2021/07/29 12:13:24;;;;;;;2.50;2.20;;;;;;;;;;5109157;28;20019;-67
2021/07/29 12:15:51;;;;;;;2.78;2.00;;;;;;;;;;5110175;28;20055;-67
2021/07/29 12:18:18;;;;;;;2.35;2.13;;;;;;;;;;5110331;28;20027;-67
2021/07/29 12:20:46;;;;;;;6.15;2.75;;;;;;;;;;5110298;28;20028;-67
2021/07/29 12:23:12;;;;;;;3.33;2.50;;;;;;;;;;5108939;28;20535;-67
2021/07/29 12:25:38;;;;;;;19.45;3.00;;;;;;;;;;5089335;28;20026;-67
2021/07/29 12:28:05;;;;;;;6.35;2.15;;;;;;;;;;5089895;28;20107;-67
2021/07/29 12:30:45;;;;;;;2.38;2.13;;;;;;;;;;5089768;28;20042;-66
2021/07/29 12:33:13;;;;;;;2.40;1.80;;;;;;;;;;5106509;28;20027;-67
2021/07/29 12:35:40;;;;;;;3.47;2.20;;;;;;;;;;5108748;28;20027;-67
2021/07/29 12:38:07;;;;;;;2.40;1.65;;;;;;;;;;5108492;28;20106;-67
2021/07/29 12:40:34;;;;;;;3.03;1.83;;;;;;;;;;5109188;28;20432;-67
2021/07/29 12:43:29;;;;;;;2.95;1.90;;;;;;;;;;5107880;28;20047;-65
2021/07/29 12:45:56;;;;;;;2.05;1.63;;;;;;;;;;5081572;28;20517;-68
2021/07/29 12:48:26;;;;;;;2.20;1.90;;;;;;;;;;5099782;28;20147;-68
2021/07/29 12:50:53;;;;;;;1.70;1.60;;;;;;;;;;5102219;28;20532;-68
2021/07/29 12:53:20;;;;;;;3.17;1.67;;;;;;;;;;5108156;28;20050;-68
2021/07/29 12:55:47;;;;;;;3.38;2.03;;;;;;;;;;5108147;28;20035;-68
2021/07/29 12:58:13;;;;;;;2.40;1.70;;;;;;;;;;5096266;28;20162;-68
2021/07/29 13:00:40;;;;;;;3.35;1.85;;;;;;;;;;5106954;28;20043;-67
2021/07/29 13:03:55;;;;;;;3.95;1.98;;;;;;;;;;5108177;28;20116;-67
2021/07/29 13:06:14;;;;;;;2.50;1.80;;;;;;;;;;5094341;28;20053;-67
2021/07/29 13:08:40;;;;;;;4.53;1.90;;;;;;;;;;5106024;28;20505;-66
2021/07/29 13:11:08;;;;;;;2.30;1.70;;;;;;;;;;5101846;28;20044;-68
2021/07/29 13:13:34;;;;;;;2.53;1.90;;;;;;;;;;5109239;28;20114;-66
2021/07/29 13:16:00;;;;;;;3.28;1.80;;;;;;;;;;5108993;28;20069;-68
2021/07/29 13:18:26;;;;;;;3.80;1.95;;;;;;;;;;5110040;28;20047;-67
2021/07/29 13:20:53;;;;;;;1.88;1.63;;;;;;;;;;5106770;28;20027;-68
2021/07/29 13:23:20;;;;;;;5.38;1.98;;;;;;;;;;5104484;28;20038;-67
2021/07/29 13:25:46;;;;;;;2.50;1.95;;;;;;;;;;5101919;28;20563;-68
2021/07/29 13:28:13;;;;;;;2.40;1.80;;;;;;;;;;5104444;28;20027;-66
2021/07/29 13:30:39;;;;;;;3.80;2.20;;;;;;;;;;5097631;28;20028;-66
2021/07/29 13:33:05;;;;;;;3.20;2.00;;;;;;;;;;5100435;28;20034;-67
2021/07/29 13:35:32;;;;;;;2.42;1.60;;;;;;;;;;5088862;28;20148;-66
2021/07/29 13:37:58;;;;;;;2.60;1.70;;;;;;;;;;5105872;28;20032;-67
2021/07/29 13:40:25;;;;;;;2.75;2.05;;;;;;;;;;5107544;28;20128;-67
2021/07/29 13:42:52;;;;;;;2.70;2.13;;;;;;;;;;5103456;28;20073;-67
2021/07/29 13:45:19;;;;;;;3.28;2.10;;;;;;;;;;5105515;28;20023;-66
2021/07/29 13:47:49;;;;;;;6.07;2.00;;;;;;;;;;5110818;28;20024;-67
2021/07/29 13:50:15;;;;;;;3.22;1.80;;;;;;;;;;5099072;28;20696;-65
2021/07/29 13:52:41;;;;;;;1.75;1.60;;;;;;;;;;5104732;28;20396;-65
2021/07/29 13:55:08;;;;;;;1.67;1.50;;;;;;;;;;5092098;28;20032;-68
2021/07/29 13:57:34;;;;;;;2.85;1.70;;;;;;;;;;5097055;28;20490;-67
2021/07/29 14:00:00;;;;;;;3.38;2.35;;;;;;;;;;5096321;28;20135;-66
2021/07/29 14:02:28;;;;;;;2.00;1.73;;;;;;;;;;5109574;28;20059;-67
2021/07/29 14:04:54;;;;;;;2.22;1.50;;;;;;;;;;5100342;28;20031;-66
2021/07/29 14:07:21;;;;;;;3.63;1.90;;;;;;;;;;5111326;28;20623;-66
2021/07/29 14:09:47;;;;;;;2.78;2.00;;;;;;;;;;5099905;28;20031;-66
2021/07/29 14:12:13;;;;;;;2.67;1.80;;;;;;;;;;5099778;28;20023;-66
2021/07/29 14:14:40;;;;;;;1.60;1.50;;;;;;;;;;5108064;28;20028;-67
2021/07/29 14:17:18;;;;;;;2.42;2.10;;;;;;;;;;5097842;28;20089;-66
2021/07/29 14:24:42;;;;;;;3.28;2.13;;;;;;;;;;5104163;28;20027;-67
2021/07/29 14:27:08;;;;;;;2.00;1.73;;;;;;;;;;5103527;28;20512;-67
2021/07/29 14:29:34;;;;;;;2.67;1.85;;;;;;;;;;5107345;28;20035;-65
2021/07/29 14:32:00;;;;;;;1.98;1.88;;;;;;;;;;5109886;28;20023;-65
2021/07/29 14:34:26;;;;;;;4.00;1.80;;;;;;;;;;5104618;28;20633;-68
2021/07/29 14:36:53;;;;;;;2.80;1.77;;;;;;;;;;5106927;28;20028;-68
2021/07/29 14:39:19;;;;;;;2.30;2.03;;;;;;;;;;5095979;28;20106;-66
2021/07/29 14:41:45;;;;;;;2.70;1.80;;;;;;;;;;5098699;28;20103;-66
2021/07/29 14:44:11;;;;;;;3.70;1.67;;;;;;;;;;5102672;28;20028;-66
2021/07/29 14:49:22;;;;;;;2.60;2.03;;;;;;;;;;5098382;28;20036;-66
2021/07/29 14:51:55;;;;;;;4.00;2.10;;;;;;;;;;5094946;28;20501;-66
2021/07/29 14:54:29;;;;;;;4.18;2.10;;;;;;;;;;5107883;28;20034;-65
2021/07/29 14:56:55;;;;;;;2.00;1.80;;;;;;;;;;5097140;28;20028;-66